createdAt,value
2023-05-22T03:23:01.096Z,3234.0
2023-05-22T03:24:00.974Z,3289.8
2023-05-22T03:25:01.190Z,3395.3
2023-05-22T03:26:00.989Z,3470.7
2023-05-22T03:27:01.174Z,3527.3
2023-05-22T03:28:08.690Z,3624.3
2023-05-22T03:29:01.116Z,3702.0
2023-05-22T03:31:02.036Z,3911.7
2023-05-22T03:32:00.971Z,3992.3
2023-05-22T03:33:02.237Z,4105.4
2023-05-22T03:34:11.176Z,4203.3
2023-05-22T03:35:07.389Z,4409.3
2023-05-22T03:36:01.053Z,4615.3
2023-05-22T03:37:00.977Z,4821.3
2023-05-22T03:38:00.974Z,5053.5
2023-05-22T03:39:06.050Z,5285.6
2023-05-22T03:40:03.023Z,5551.7
2023-05-22T03:41:01.076Z,5817.9
2023-05-22T03:42:01.051Z,6084.0
2023-05-22T03:43:01.245Z,6392.7
2023-05-22T03:44:00.988Z,6701.3
2023-05-22T03:46:01.018Z,7416.1
2023-05-22T03:47:00.975Z,7773.5
2023-05-22T03:48:01.030Z,8187.1
2023-05-22T03:49:01.104Z,8600.6
2023-05-22T03:50:01.288Z,9075.7
2023-05-22T03:51:01.014Z,9550.9
2023-05-22T03:52:00.995Z,10026.0
2023-05-22T03:53:00.985Z,10574.8
2023-05-22T03:54:00.979Z,11123.6
2023-05-22T03:55:01.228Z,11754.9
2023-05-22T03:56:00.991Z,12386.3
2023-05-22T03:57:00.977Z,13017.6
2023-05-22T03:58:00.976Z,13744.0
2023-05-22T03:59:01.046Z,14470.4
2023-05-22T04:01:01.109Z,16135.5
2023-05-22T04:02:00.989Z,16968.0
2023-05-22T04:03:01.113Z,17900.3
2023-05-22T04:04:00.978Z,18832.7
2023-05-22T04:05:01.473Z,19839.2
2023-05-22T04:06:00.985Z,20845.7
2023-05-22T04:07:01.087Z,21852.3
2023-05-22T04:08:00.987Z,22887.5
2023-05-22T04:09:00.989Z,23922.8
2023-05-22T04:11:00.979Z,25925.5
2023-05-22T04:12:00.990Z,26926.8
2023-05-22T04:13:00.981Z,27838.1
2023-05-22T04:14:00.998Z,28749.3
2023-05-22T04:16:01.014Z,30310.9
2023-05-22T04:17:01.005Z,31091.7
2023-05-22T04:18:01.026Z,31729.1
2023-05-22T04:19:01.012Z,32366.5
2023-05-22T04:21:00.984Z,33370.4
2023-05-22T04:22:00.995Z,33872.3
2023-05-22T04:23:01.021Z,34262.2
2023-05-22T04:24:00.979Z,34652.1
2023-05-22T04:25:16.001Z,34982.1
2023-05-22T04:26:01.192Z,35312.1
2023-05-22T04:27:00.990Z,35642.1
2023-05-22T04:28:00.990Z,35958.9
2023-05-22T04:53:00.949Z,53584.0
2023-05-22T04:54:00.882Z,53750.2
2023-05-22T04:55:03.846Z,54142.7
2023-05-22T04:56:00.882Z,54423.0
2023-05-22T04:57:00.882Z,54633.3
2023-05-22T04:58:00.919Z,54993.4
2023-05-22T04:59:00.885Z,55281.6
2023-05-22T05:00:04.220Z,55740.8
2023-05-22T05:01:00.920Z,56123.5
2023-05-22T05:02:00.880Z,56447.3
2023-05-22T05:03:01.003Z,56822.4
2023-05-22T05:04:01.002Z,57147.5
2023-05-22T05:05:01.112Z,57821.5
2023-05-22T05:06:00.904Z,58495.5
2023-05-22T05:07:00.889Z,59169.5
2023-05-22T05:08:00.896Z,59910.9
2023-05-22T05:09:00.898Z,60652.2
2023-05-22T05:11:00.890Z,61909.5
2023-05-22T05:12:00.952Z,62538.2
2023-05-22T05:13:00.887Z,63048.9
2023-05-22T05:14:00.886Z,63559.5
2023-05-22T05:17:00.973Z,64599.9
2023-05-22T05:18:00.906Z,64855.7
2023-05-22T05:19:00.936Z,65111.4
2023-05-22T05:21:00.909Z,65393.8
2023-05-22T05:22:00.909Z,65535.0
2023-05-22T08:15:01.995Z,65535.0
2023-05-22T11:00:05.213Z,65535.0
2023-05-22T12:15:01.753Z,65535.0
2023-05-22T12:30:02.295Z,65535.0
2023-05-22T14:10:02.794Z,65535.0
2023-05-22T14:15:01.510Z,65535.0
2023-05-22T16:32:01.261Z,58232.3
2023-05-22T16:33:01.076Z,55382.5
2023-05-22T16:34:01.108Z,53672.6
2023-05-22T16:35:02.125Z,52532.7
2023-05-22T16:36:01.049Z,50730.7
2023-05-22T16:37:01.081Z,49379.3
2023-05-22T16:38:01.065Z,47973.3
2023-05-22T16:39:01.056Z,46848.6
2023-05-22T16:42:01.082Z,44275.4
2023-05-22T16:43:01.046Z,43465.3
2023-05-22T16:44:01.118Z,42763.2
2023-05-22T16:47:01.290Z,37290.6
2023-05-22T16:48:01.130Z,35903.7
2023-05-22T16:49:01.051Z,34516.7
2023-05-22T16:52:01.115Z,30789.0
2023-05-22T16:53:01.079Z,29655.3
2023-05-22T16:54:01.051Z,28521.5
2023-05-22T16:57:01.055Z,25075.0
2023-05-22T16:58:01.106Z,23984.3
2023-05-22T16:59:01.058Z,22893.7
2023-05-22T17:02:01.187Z,19948.1
2023-05-22T17:03:01.206Z,19265.0
2023-05-22T17:04:01.087Z,18581.9
2023-05-22T17:05:02.337Z,17898.9
2023-05-22T17:07:01.128Z,16990.7
2023-05-22T17:08:01.099Z,16673.9
2023-05-22T17:09:01.054Z,16357.1
2023-05-22T17:12:01.058Z,15615.4
2023-05-22T17:13:01.089Z,15475.7
2023-05-22T17:14:01.057Z,15336.1
2023-05-22T17:17:01.051Z,14957.9
2023-05-22T17:18:01.249Z,14818.7
2023-05-22T17:42:00.979Z,11119.3
2023-05-22T17:43:00.974Z,11122.5
2023-05-22T17:44:00.972Z,11124.4
2023-05-22T17:47:00.983Z,11181.8
2023-05-22T17:48:00.982Z,11113.9
2023-05-22T17:49:00.982Z,11059.6
2023-05-22T17:50:02.323Z,11015.2
2023-05-22T17:51:02.066Z,10879.8
2023-05-22T17:52:01.007Z,10765.3
2023-05-22T17:53:00.977Z,10608.9
2023-05-22T17:54:01.040Z,10473.4
2023-05-22T17:55:01.788Z,10302.2
2023-05-22T17:56:01.100Z,10084.4
2023-05-22T17:57:00.994Z,9866.6
2023-05-22T17:58:00.983Z,9609.7
2023-05-22T17:59:01.040Z,9352.9
2023-05-22T18:02:01.054Z,8478.8
2023-05-22T18:03:01.023Z,8188.7
2023-05-22T18:04:01.074Z,7898.7
2023-05-22T18:05:02.036Z,7608.6
2023-05-22T18:06:01.009Z,7380.5
2023-05-22T18:07:00.973Z,7152.5
2023-05-22T18:08:00.976Z,6949.0
2023-05-22T18:09:00.975Z,6745.5
2023-05-22T18:10:01.360Z,6542.1
2023-05-22T18:11:00.980Z,6350.9
2023-05-22T18:12:01.167Z,6159.7
2023-05-22T18:13:01.048Z,5966.8
2023-05-22T18:14:00.991Z,5773.9
2023-05-22T18:15:02.743Z,5581.1
2023-05-22T18:16:01.007Z,5384.7
2023-05-22T18:17:00.979Z,5188.4
2023-05-22T18:18:01.024Z,4991.9
2023-05-22T18:19:00.995Z,4795.3
2023-05-22T18:20:02.199Z,4598.8
2023-05-22T18:21:00.976Z,4393.7
2023-05-22T18:22:00.980Z,4188.7
2023-05-22T18:23:01.010Z,3995.3
2023-05-22T18:24:00.999Z,3802.0
2023-05-22T18:25:02.069Z,3608.7
2023-05-22T18:26:00.985Z,3441.4
2023-05-22T18:27:00.982Z,3274.1
2023-05-22T18:28:01.111Z,3138.7
2023-05-22T18:29:00.985Z,3003.2
2023-05-22T18:32:01.112Z,2663.9
2023-05-22T18:33:00.991Z,2578.4
2023-05-22T18:34:00.986Z,2492.9
2023-05-22T18:35:01.276Z,2407.5
2023-05-22T18:36:00.993Z,2336.5
2023-05-22T18:37:00.984Z,2265.6
2023-05-22T18:38:00.982Z,2213.5
2023-05-22T18:39:00.986Z,2161.3
2023-05-22T18:40:01.224Z,2109.2
2023-05-22T18:41:00.984Z,2067.7
2023-05-22T18:42:00.995Z,2026.1
2023-05-22T18:43:00.992Z,1981.4
2023-05-22T18:44:01.104Z,1936.7
2023-05-22T18:46:01.060Z,1843.4
2023-05-22T18:47:00.995Z,1794.9
2023-05-22T18:48:01.010Z,1762.2
2023-05-22T18:49:00.992Z,1729.5
2023-05-22T18:51:00.990Z,1669.8
2023-05-22T18:52:00.983Z,1642.7
2023-05-22T18:53:01.061Z,1603.4
2023-05-22T18:54:01.015Z,1564.1
2023-05-22T18:56:00.990Z,1471.3
2023-05-22T18:57:00.987Z,1417.9
2023-05-22T18:58:00.997Z,1365.6
2023-05-22T18:59:00.993Z,1313.3
2023-05-22T19:01:01.023Z,1216.3
2023-05-22T19:02:01.000Z,1171.6
2023-05-22T19:03:01.078Z,1125.3
2023-05-22T19:04:00.998Z,1078.9
2023-05-22T19:06:01.002Z,984.8
2023-05-22T19:07:00.998Z,937.0
2023-05-22T19:08:00.995Z,894.7
2023-05-22T19:09:01.066Z,852.5
2023-05-22T19:11:01.059Z,777.1
2023-05-22T19:12:00.999Z,743.9
2023-05-22T19:13:01.002Z,714.9
2023-05-22T19:14:01.018Z,685.9
2023-05-22T19:16:01.123Z,624.9
2023-05-22T19:17:01.082Z,592.8
2023-05-22T19:18:01.039Z,560.5
2023-05-22T19:19:01.016Z,528.1
2023-05-22T19:21:01.000Z,466.7
2023-05-22T19:22:01.001Z,437.7
2023-05-22T19:23:01.006Z,413.0
2023-05-22T19:24:01.003Z,388.3
2023-05-22T19:26:00.997Z,341.2
2023-05-22T19:27:01.010Z,318.7
2023-05-22T19:28:00.996Z,299.4
2023-05-22T19:29:01.004Z,280.1
2023-05-22T19:31:01.029Z,245.9
2023-05-22T19:32:01.141Z,231.1
2023-05-22T19:33:01.018Z,217.5
2023-05-22T19:34:01.002Z,203.8
2023-05-22T19:36:01.138Z,179.3
2023-05-22T19:37:01.083Z,168.4
2023-05-22T19:38:01.000Z,158.5
2023-05-22T19:39:01.004Z,148.7
2023-05-22T19:41:01.008Z,130.7
2023-05-22T19:42:01.074Z,122.5
2023-05-22T19:43:01.077Z,115.5
2023-05-22T19:44:01.082Z,108.5
2023-05-22T19:47:01.017Z,88.7
2023-05-22T19:48:01.144Z,83.4
2023-05-22T19:49:01.078Z,78.1
2023-05-22T19:51:01.022Z,67.3
2023-05-22T19:52:01.008Z,61.8
2023-05-22T19:53:01.012Z,56.5
2023-05-22T19:54:01.018Z,51.1
2023-05-22T19:56:01.004Z,41.3
2023-05-22T19:57:01.018Z,36.9
2023-05-22T19:58:01.006Z,33.2
2023-05-22T19:59:01.027Z,29.5
2023-05-22T20:01:01.015Z,23.3
2023-05-22T20:02:01.021Z,20.7
2023-05-22T20:03:01.094Z,19.0
2023-05-22T20:04:01.192Z,17.3
2023-05-22T20:07:01.125Z,13.4
2023-05-22T20:08:01.005Z,12.6
2023-05-22T20:09:01.028Z,11.8
2023-05-22T20:11:01.143Z,10.3
2023-05-22T20:12:01.029Z,9.7
2023-05-22T20:13:01.020Z,9.1
2023-05-22T20:14:01.284Z,8.6
2023-05-22T20:16:01.179Z,7.6
2023-05-22T20:17:01.022Z,7.1
2023-05-22T20:18:01.032Z,6.7
2023-05-22T20:19:01.013Z,6.2
2023-05-22T20:21:01.347Z,5.3
2023-05-22T20:22:02.120Z,4.9
2023-05-22T20:23:01.014Z,4.5
2023-05-22T20:24:01.018Z,4.1
2023-05-22T20:25:02.168Z,3.7
2023-05-22T20:26:01.076Z,3.5
2023-05-22T20:27:01.025Z,3.2
2023-05-22T20:28:01.282Z,2.9
2023-05-22T20:29:01.020Z,2.7
2023-05-22T20:31:01.311Z,2.2
2023-05-22T20:32:01.129Z,2.0
2023-05-22T20:33:01.114Z,1.9
2023-05-22T20:34:01.025Z,1.7
2023-05-22T20:36:01.408Z,1.5
2023-05-22T20:37:01.023Z,1.3
2023-05-22T20:38:01.016Z,1.2
2023-05-22T20:39:02.105Z,1.1
2023-05-22T20:41:01.284Z,0.8
2023-05-22T20:42:01.019Z,0.7
2023-05-22T20:43:01.028Z,0.6
